Colorado AWOS List, Phone Numbers, Maps

USA |  
| Search AWOS

Rocky Mountain States: Montana | Wyoming | Colorado | New Mexico

Complete weather reports: Colorado

Legend: KFNL = METAR available Follow your local AWOS on AV Mobile = METAR available on AV Mobile
Station Colorado Location Frequency Phone
KAKOFAA ID AKO, ASOS, KAKO 290053Z AUTO 09008KT 10SM CLR 19/02 A3031 RMK AO2 SLP235 T01890022 Follow KAKO on AV Mobile COLORADO PLAINS REGIONAL 135.475 970-345-2320
KALSFAA ID ALS, ASOS, KALS 290052Z AUTO 09009KT 10SM CLR 19/M03 A3039 Follow KALS on AV Mobile SAN LUIS VALLEY REGIONAL 135.175 719-589-5669
KASEFAA ID ASE, ASOS, KASE 290053Z 19006KT 10SM BKN120 19/00 A3036 Follow KASE on AV Mobile ASPEN-PITKIN COUNTY AIRPORT 120.400 970-925-9168
KBKFFAA ID BKF, KBKF 290058Z 09009KT 10SM FEW090 FEW220 22/M01 A3031 Follow KBKF on AV Mobile Aurora, Buckley Air Force Base Airport
K7BMFAA ID 7BM, AWOS-3, K7BM 290114Z AUTO 13017G22KT 10SM CLR 16/M05 A3057 RMK AO2 Follow K7BM on AV Mobile Cottonwood Pass 132.050 303-512-4919
KBDUFAA ID BDU, AWOS-3, KBDU 290116Z AUTO 34004KT 10SM CLR 21/01 A3031 RMK AO2 Follow KBDU on AV Mobile Boulder Municipal Airport 118.825 303-541-9540
KAEJFAA ID AEJ, AWOS-3, KAEJ 290115Z AUTO 16005KT 10SM CLR 17/M03 A3045 RMK AO2 T01701030 Follow KAEJ on AV Mobile Central Colorado Regional Airport 132.925 719-395-2599
KITRFAA ID ITR, ASOS, KITR 290053Z AUTO 07011KT 10SM CLR 21/04 A3029 RMK AO2 SLP229 T02060044 Follow KITR on AV Mobile Kit Carson County Airport 135.225 719-346-7036
K1V6FAA ID 1V6, AWOS-3, K1V6 290110Z AUTO 07007KT 10SM CLR 22/00 A3031 RMK AO2 Follow K1V6 on AV Mobile CANON CITY 120.025
KAFFFAA ID AFF, KAFF 290058Z AUTO 16008KT 10SM CLR 20/M02 A3038 RMK AO2 SLP235 T01991018 Follow KAFF on AV Mobile Air Force Academy
KCOSFAA ID COS, ASOS, KCOS 290054Z 15006KT 10SM FEW140 FEW180 BKN250 21/M02 A3037 Follow KCOS on AV Mobile COLORADO SPRINGS MUNI 125.000 719-637-9696
KFLYFAA ID FLY, AWOS-3PT, KFLY 290115Z AUTO 18005KT 10SM CLR 16/M01 A3043 RMK AO2 T01571015 Follow KFLY on AV Mobile Meadowlake Airport, Peyton, CO 118.450 719-683-5371
KCCUFAA ID CCU, AWOS-3, KCCU 290116Z AUTO 14018G22KT 10SM SCT110 12/M07 A3069 RMK AO2 Follow KCCU on AV Mobile Copper Mountain, Red Cliff Pass 118.075 970-968-1715
KCEZFAA ID CEZ, ASOS, KCEZ 290053Z AUTO 27006KT 10SM BKN090 22/05 A3027 RMK AO2 SLP202 T02170050 Follow KCEZ on AV Mobile CORTEZ MONTEZUMA COUNTY AIRPORT 135.625 970-564-0193
KCAGFAA ID CAG, ASOS, KCAG 290053Z AUTO VRB03KT 10SM CLR 20/01 A3025 Follow KCAG on AV Mobile CRAIG MOFFAT AIRPORT 135.425 970-824-2373
KRCVFAA ID RCV, AWOS-3PT, KRCV 290110Z AUTO 00000KT 10SM CLR 15/M03 A3042 RMK AO2 T01451034 Follow KRCV on AV Mobile DEL NORTE 118.275 719-657-9017
KAJZFAA ID AJZ, AWOS-3, KAJZ 290035Z AUTO 22006KT 7SM CLR 28/02 A3019 RMK AO2 T02770018 Follow KAJZ on AV Mobile Blake Field Airport 134.000 970-874-3251
KDNRICAO ID KDNR Denver / Stapleton International, Co.
KAPAFAA ID APA, ASOS, KAPA 290053Z 16009KT 10SM FEW080 FEW200 22/M02 A3031 RMK AO2 SLP219 T02221022 Follow KAPA on AV Mobile DENVER CENTENNIAL AIRPORT 120.300 303-706-9098
KDENFAA ID DEN, ASOS, KDEN 290053Z 08010KT 10SM FEW120 FEW250 21/M01 A3029 Follow KDEN on AV Mobile DENVER INTERNATIONAL AIRPORT 125.600 303-342-0838
KFTGFAA ID FTG, AWOS-3, KFTG 290048Z 07009KT 10SM FEW150 22/M01 A3031 Follow KFTG on AV Mobile Front Range Airport 119.025 303-261-9104
KBJCFAA ID BJC, AWOS-3, KBJC 290045Z 05006KT 50SM FEW100 23/M01 A3032 Follow KBJC on AV Mobile Rocky Mountain Metro Airport 126.250 720-887-8067
K4V5ICAO ID K4V5 Durango Aviation Weather Reporting Station
KDROFAA ID DRO, ASOS, KDRO 290053Z AUTO 35003KT 10SM FEW110 22/01 A3032 RMK AO2 SLP220 T02170006 Follow KDRO on AV Mobile DURANGO-LA PLATA COUNTY AIRPORT 120.625 970-259-3579
KEGEFAA ID EGE, AWOS-3, KEGE 290115Z AUTO 00000KT 10SM CLR 22/M01 A3030 Follow KEGE on AV Mobile Eagle County Regional 135.575 970-524-7386
CO90FAA ID CO90, ASOS, KANQ 290140Z AUTO 00000KT 12/05 A2997 RMK Follow  on AV Mobile USAF Academy Bullseye Aux Airstrip 118.325 719-683-3346
K0COFAA ID 0CO, AWOS-3, K0CO 290124Z AUTO 10032G38KT 10SM CLR 04/M03 A3074 RMK AO2 Follow K0CO on AV Mobile EMPIRE 134.325
KEIKFAA ID EIK, AWOS-3, KEIK 290114Z AUTO 06006KT 10SM CLR 22/M01 A3030 RMK AO2 T02161010 Follow KEIK on AV Mobile Erie Municipal Airport 133.825 303-604-4339
KFCSFAA ID FCS, KFCS 290058Z 14006KT 10SM CLR 20/M01 A3034 RMK AO2A SLP241 T02021014 $ Follow KFCS on AV Mobile Fort Carson
KFCLICAO ID KFCL Fort Collins Supplementary Aviation Weather Reporting Station
KFNLFAA ID FNL, AWOS-3, KFNL 290115Z AUTO 10008KT 10SM CLR 21/01 A3028 RMK AO1 Follow KFNL on AV Mobile Fort Collins/Loveland, Fort Collins-Loveland Municipal Airport 135.075 970-669-9187
KFMMFAA ID FMM, AWOS-3, KFMM 290115Z AUTO 06008KT 10SM CLR 19/01 A3030 RMK AO2 T01870012 Follow KFMM on AV Mobile Fort Morgan Municipal Airport 132.950 970-867-4823
KGNBFAA ID GNB, AWOS-3PT Granby-Grand County Airport 119.925 970-887-1803
KGJTFAA ID GJT, ASOS, KGJT 290053Z 35007KT 10SM CLR 24/02 A3015 Follow KGJT on AV Mobile GRAND JUNCTION WALKER FIELD 118.550 970-245-7881
KGXYFAA ID GXY, AWOS-3, KGXY 290115Z 10005KT 10SM CLR 20/03 A3029 RMK AO1 Follow KGXY on AV Mobile Greeley, Greeley-Weld County Airport 135.175 970-352-3511
K2V9ICAO ID K2V9 Gunnison Aviation Weather Reporting Station
KGUCFAA ID GUC, AWOS-3, KGUC 290115Z 13008KT 10SM CLR 18/M04 A3039 RMK AO2 SLP303 PWINO FZRANO RVRNO Follow KGUC on AV Mobile Gunnison, Gunnison-Crested Butte Regional Airport 135.075 970-641-3240
KHDNFAA ID HDN, AWOS-3, KHDN 290115Z AUTO 04003KT 9SM FEW120 22/M01 A3028 RMK AO1 Follow KHDN on AV Mobile Hayden, Yampa Valley Airport 119.275 970-276-3690
KHEQFAA ID HEQ, AWOS-3, KHEQ 290115Z AUTO 10007KT 10SM CLR 17/03 A3030 RMK AO2 Follow KHEQ on AV Mobile Holyoke Airport 119.275 970-854-3679
K20VFAA ID 20V, AWOS-3, K20V 290116Z AUTO 05004KT 10SM SCT120 19/M04 A3037 RMK AO2 Follow K20V on AV Mobile Kremmling, Mc Elroy Airfield 118.425 970-724-9659
KLHXFAA ID LHX, ASOS, KLHX 290053Z AUTO 08007KT 10SM CLR 23/02 A3025 RMK AO2 SLP206 T02330017 Follow KLHX on AV Mobile LA JUNTA MUNICIPAL AIRPORT 135.525 719-384-5961
KVTPFAA ID VTP, AWOS-3, KVTP 290107Z AUTO 10SM CLR 11/M05 A3061 RMK AO2 Follow KVTP on AV Mobile La Veta Mountain, La Veta Pass 119.925 719-587-3120
KLAAFAA ID LAA, ASOS, KLAA 290053Z AUTO 12008KT 10SM CLR 22/02 A3022 RMK AO2 SLP207 T02170022 TSNO Follow KLAA on AV Mobile LAMAR MUNICIPAL AIRPORT 135.625 719-336-3854
KLXVFAA ID LXV, ASOS, KLXV 290053Z AUTO 15005KT 10SM FEW110 14/M07 A3055 Follow KLXV on AV Mobile LEADVILLE LAKE CO 118.375 719-486-2735
KLICFAA ID LIC, ASOS, KLIC 290055Z AUTO 09008KT 9SM CLR 18/01 A3033 RMK AO2 SLP230 T01830011 Follow KLIC on AV Mobile LIMON MUNICIPAL AIRPORT 121.125 719-775-0515
KLMOFAA ID LMO, AWOS-3, KLMO 290113Z AUTO 06005KT 10SM CLR 22/02 A3032 RMK AO2 T02190022 Follow KLMO on AV Mobile Vance Brand Airport 120.000 303-684-7545
KEEOFAA ID EEO, ASOS, KEEO 290053Z AUTO 00000KT 10SM CLR 21/03 A3026 RMK AO2 SLP190 T02060033 Follow KEEO on AV Mobile MEEKER AIRPORT 135.525 970-878-5036
KMYPFAA ID MYP, AWOS-3, KMYP 290111Z AUTO 07009KT 10SM SCT090 08/M03 A3082 RMK AO2 Follow KMYP on AV Mobile Salida Mountain, Monarch Pass 124.175 719-539-4436
KMTJFAA ID MTJ, ASOS, KMTJ 290053Z AUTO 13005KT 10SM FEW120 23/04 A3024 RMK AO2 SLP182 T02280039 Follow KMTJ on AV Mobile MONTROSE REGIONAL AIRPORT 135.225 970-249-1534
KMNHFAA ID MNH, AWOS-3, KMNH 290120Z AUTO 18008KT 10SM CLR 13/M02 A3043 RMK AO2 Follow KMNH on AV Mobile Elbert Mountain, Monument Pass 134.375 303-648-3479
KCRVICAO ID KCRV Nederland Mountain, Corona Pass
KAIBFAA ID AIB, AWOS-3, KAIB 290115Z AUTO 24010G16KT 10SM BKN110 23/01 A3030 RMK AO2 Follow KAIB on AV Mobile Hopkins Field Airport 132.525 970-864-2325
KPSOFAA ID PSO, AWOS-3, KPSO 290115Z AUTO 00000KT 10SM CLR 17/00 A3041 RMK AO2 T01701002 Follow KPSO on AV Mobile Stevens Field Airport 127.175 970-731-0365
KPEFICAO ID KPEF Peterson Air Force Base
KPUXICAO ID KPUX Pueblo NEXRAD
KPUBFAA ID PUB, ASOS, KPUB 290053Z 11008KT 10SM CLR 24/00 A3026 Follow KPUB on AV Mobile PUEBLO MEMORIAL AIRPORT 125.250 719-948-2803
4V0FAA ID 4V0, AWOS-3PT, KANQ 290140Z AUTO 00000KT 12/05 A2997 RMK Follow  on AV Mobile RANGELY 119.025 970-675-2339
K1V1ICAO ID K1V1 Rifle Aviation Weather Reporting Station
KRILFAA ID RIL, ASOS, KRIL 290053Z AUTO 26007KT 10SM CLR 24/03 A3019 RMK AO2 SLP174 T02390028 Follow KRIL on AV Mobile RIFLE GARFIELD COUNTY RGNL 135.275 970-625-2206
K04VFAA ID 04V, AWOS-3, K04V 210604Z AUTO 32014G18KT 10SM OVC100 12/03 A3038 RMK AO2 PWINO Follow K04V on AV Mobile Saguache, Saguache Municipal Airport 118.625 719-655-2229
KS29ICAO ID KS29 Salida
KANKFAA ID ANK, AWOS-3, KANK 290115Z AUTO 14012G19KT 10SM CLR 20/M02 A3048 RMK AO1 T02021025 Follow KANK on AV Mobile Harriet Alexander Field Airport 133.850 719-539-5268
KSPDICAO ID KSPD, KSPD 290056Z AUTO 10006KT 19/02 A3027 RMK AO1 SLP213 T01940022 Follow KSPD on AV Mobile SPRINGFIELD COMANCHE NATL
KSBSFAA ID SBS, AWOS-3, KSBS 290115Z AUTO 00000KT 10SM CLR 21/00 A3031 RMK AO1 T02120003 Follow KSBS on AV Mobile Steamboat Springs 118.325 970-879-7794
KSTKFAA ID STK, AWOS-3, KSTK 290110Z AUTO 08005KT 10SM CLR 21/03 A3027 RMK AO2 Follow KSTK on AV Mobile Sterling Municipal Airport 118.525 970-526-3009
K5SMFAA ID 5SM, AWOS-3, K5SM 290114Z AUTO 31004KT 10SM SCT100 SCT120 13/M01 A3063 RMK AO2 TSNO Follow K5SM on AV Mobile Sunlight 126.075 970-384-3380
KTEXFAA ID TEX, AWOS-3, KTEX 290115Z AUTO 00000KT 10SM CLR 17/00 A3051 RMK AO2 T01701001 Follow KTEX on AV Mobile Telluride, Telluride Regional Airport 118.325 970-728-1534
KTADFAA ID TAD, ASOS, KTAD 290054Z AUTO 14007KT 10SM CLR 22/M02 A3032 RMK AO2 SLP209 T02221022 Follow KTAD on AV Mobile Trinidad, Perry Stokes Airport 119.025 719-845-1156
K33VFAA ID 33V, AWOS-3, K33V 290115Z AUTO 04004KT 10SM 19/M05 A3042 RMK AO2 Follow K33V on AV Mobile WALDEN 118.625 970-723-4513
4V1FAA ID 4V1, AWOS-3, KANQ 290140Z AUTO 00000KT 12/05 A2997 RMK Follow  on AV Mobile Spanish Peaks Airfield 123.600 719-738-1053
K4BMFAA ID 4BM, AWOS-3, K4BM 290116Z AUTO 20010G15KT 10SM CLR 09/M06 A3071 RMK AO2 Follow K4BM on AV Mobile Wilkerson Pass 132.3 303-512-4418
KC96ICAO ID KC96 Winter Park Resort
KCPWFAA ID CPW, AWOS-3, KCPW 290124Z AUTO 10SM BKN060 BKN080 08/M03 A3073 RMK AO2 Follow KCPW on AV Mobile Pagosa Springs, Wolf Creek Pass 121.125 970-264-2180
K2V5FAA ID 2V5, AWOS-3, K2V5 290055Z AUTO 07007KT 10SM CLR 21/02 A3028 RMK AO2 Follow K2V5 on AV Mobile Wray Municipal Airport 118.250 970-332-5930
2V6FAA ID 2V6, AWOS-3, KANQ 290140Z AUTO 00000KT 12/05 A2997 RMK Follow  on AV Mobile YUMA 135.375 970-848-3007

Click on the AV Mobile icon AV Mobile icon by any station to follow that AWOS feed on AirportView.net Mobile.

Legend: Commercial service airport with AWOS Commercial Airport AWOSNon-Commercial service airport with AWOS Non-Commercial Airport AWOS
Airport AWOS - Click symbol for weather report Fort Morgan Municipal Airport KFMM 290115Z AUTO 06008KT 10SM CLR 19/01 A3030 RMK AO2 T01870012 Hopkins Field Airport KAIB 290115Z AUTO 24010G16KT 10SM BKN110 23/01 A3030 RMK AO2 Telluride, Telluride Regional Airport KTEX 290115Z AUTO 00000KT 10SM CLR 17/00 A3051 RMK AO2 T01701001 Greeley, Greeley-Weld County Airport KGXY 290115Z 10005KT 10SM CLR 20/03 A3029 RMK AO1 Front Range Airport KFTG 290048Z 07009KT 10SM FEW150 22/M01 A3031 Rocky Mountain Metro Airport KBJC 290045Z 05006KT 50SM FEW100 23/M01 A3032 DENVER CENTENNIAL AIRPORT KAPA 290053Z 16009KT 10SM FEW080 FEW200 22/M02 A3031 RMK AO2 SLP219 T02221022 DENVER INTERNATIONAL AIRPORT KDEN 290053Z 08010KT 10SM FEW120 FEW250 21/M01 A3029 Fort Collins/Loveland, Fort Collins-Loveland Municipal Airport KFNL 290115Z AUTO 10008KT 10SM CLR 21/01 A3028 RMK AO1 Boulder Municipal Airport KBDU 290116Z AUTO 34004KT 10SM CLR 21/01 A3031 RMK AO2 Vance Brand Airport KLMO 290113Z AUTO 06005KT 10SM CLR 22/02 A3032 RMK AO2 T02190022 Sterling Municipal Airport KSTK 290110Z AUTO 08005KT 10SM CLR 21/03 A3027 RMK AO2 Holyoke Airport KHEQ 290115Z AUTO 10007KT 10SM CLR 17/03 A3030 RMK AO2 COLORADO PLAINS REGIONAL KAKO 290053Z AUTO 09008KT 10SM CLR 19/02 A3031 RMK AO2 SLP235 T01890022 Kit Carson County Airport KITR 290053Z AUTO 07011KT 10SM CLR 21/04 A3029 RMK AO2 SLP229 T02060044 LIMON MUNICIPAL AIRPORT KLIC 290055Z AUTO 09008KT 9SM CLR 18/01 A3033 RMK AO2 SLP230 T01830011 COLORADO SPRINGS MUNI KCOS 290054Z 15006KT 10SM FEW140 FEW180 BKN250 21/M02 A3037 LAMAR MUNICIPAL AIRPORT KLAA 290053Z AUTO 12008KT 10SM CLR 22/02 A3022 RMK AO2 SLP207 T02170022 TSNO LA JUNTA MUNICIPAL AIRPORT KLHX 290053Z AUTO 08007KT 10SM CLR 23/02 A3025 RMK AO2 SLP206 T02330017 Trinidad, Perry Stokes Airport KTAD 290054Z AUTO 14007KT 10SM CLR 22/M02 A3032 RMK AO2 SLP209 T02221022 PUEBLO MEMORIAL AIRPORT KPUB 290053Z 11008KT 10SM CLR 24/00 A3026 CANON CITY 1V6 SAN LUIS VALLEY REGIONAL KALS 290052Z AUTO 09009KT 10SM CLR 19/M03 A3039 Saguache, Saguache Municipal Airport K04V 210604Z AUTO 32014G18KT 10SM OVC100 12/03 A3038 RMK AO2 PWINO Granby-Grand County Airport KGNB WALDEN 33V Steamboat Springs KSBS 290115Z AUTO 00000KT 10SM CLR 21/00 A3031 RMK AO1 T02120003 Hayden, Yampa Valley Airport KHDN 290115Z AUTO 04003KT 9SM FEW120 22/M01 A3028 RMK AO1 Kremmling, Mc Elroy Airfield K20V 290116Z AUTO 05004KT 10SM SCT120 19/M04 A3037 RMK AO2 LEADVILLE LAKE CO KLXV 290053Z AUTO 15005KT 10SM FEW110 14/M07 A3055 Eagle County Regional KEGE 290115Z AUTO 00000KT 10SM CLR 22/M01 A3030 CRAIG MOFFAT AIRPORT KCAG 290053Z AUTO VRB03KT 10SM CLR 20/01 A3025 MEEKER AIRPORT KEEO 290053Z AUTO 00000KT 10SM CLR 21/03 A3026 RMK AO2 SLP190 T02060033 ASPEN-PITKIN COUNTY AIRPORT KASE 290053Z 19006KT 10SM BKN120 19/00 A3036 Gunnison, Gunnison-Crested Butte Regional Airport KGUC 290115Z 13008KT 10SM CLR 18/M04 A3039 RMK AO2 SLP303 PWINO FZRANO RVRNO DURANGO-LA PLATA COUNTY AIRPORT  KDRO 290053Z AUTO 35003KT 10SM FEW110 22/01 A3032 RMK AO2 SLP220 T02170006 Stevens Field Airport KPSO 290115Z AUTO 00000KT 10SM CLR 17/00 A3041 RMK AO2 T01701002 CORTEZ MONTEZUMA COUNTY AIRPORT  KCEZ 290053Z AUTO 27006KT 10SM BKN090 22/05 A3027 RMK AO2 SLP202 T02170050 MONTROSE REGIONAL AIRPORT KMTJ 290053Z AUTO 13005KT 10SM FEW120 23/04 A3024 RMK AO2 SLP182 T02280039 RIFLE GARFIELD COUNTY RGNL KRIL 290053Z AUTO 26007KT 10SM CLR 24/03 A3019 RMK AO2 SLP174 T02390028 GRAND JUNCTION WALKER FIELD KGJT 290053Z 35007KT 10SM CLR 24/02 A3015 Blake Field Airport KAJZ 290035Z AUTO 22006KT 7SM CLR 28/02 A3019 RMK AO2 T02770018 Central Colorado Regional Airport KAEJ 290115Z AUTO 16005KT 10SM CLR 17/M03 A3045 RMK AO2 T01701030 Harriet Alexander Field Airport KANK 290115Z AUTO 14012G19KT 10SM CLR 20/M02 A3048 RMK AO1 T02021025 Erie Municipal Airport KEIK 290114Z AUTO 06006KT 10SM CLR 22/M01 A3030 RMK AO2 T02161010 Wray Municipal Airport K2V5 290055Z AUTO 07007KT 10SM CLR 21/02 A3028 RMK AO2
Legend: High Mountain AWOS Mountain Pass AWOS
Mountain Pass AWOS - Click symbol for weather report Pagosa Springs, Wolf Creek Pass KCPW 290124Z AUTO 10SM BKN060 BKN080 08/M03 A3073 RMK AO2 Saguache, Saguache Municipal Airport K04V 210604Z AUTO 32014G18KT 10SM OVC100 12/03 A3038 RMK AO2 PWINO Kremmling, Mc Elroy Airfield K20V 290116Z AUTO 05004KT 10SM SCT120 19/M04 A3037 RMK AO2 La Veta Mountain, La Veta Pass KVTP 290107Z AUTO 10SM CLR 11/M05 A3061 RMK AO2 Salida Mountain, Monarch Pass KMYP 290111Z AUTO 07009KT 10SM SCT090 08/M03 A3082 RMK AO2 Cottonwood Pass K7BM 290114Z AUTO 13017G22KT 10SM CLR 16/M05 A3057 RMK AO2 Elbert Mountain, Monument Pass KMNH 290120Z AUTO 18008KT 10SM CLR 13/M02 A3043 RMK AO2 Wilkerson Pass K4BM 290116Z AUTO 20010G15KT 10SM CLR 09/M06 A3071 RMK AO2 Copper Mountain, Red Cliff Pass KCCU 290116Z AUTO 14018G22KT 10SM SCT110 12/M07 A3069 RMK AO2 EMPIRE 0CO Sunlight K5SM 290114Z AUTO 31004KT 10SM SCT100 SCT120 13/M01 A3063 RMK AO2 TSNO
Leaders in ADS-B Avemco Insurance Company